Terminal Aerodrome Forecast
Issued by NWS

Home | Current Version | Previous Version | Graphics & Text | Print | Product List | Glossary On
Versions: 1 2 3 4 5 6 7 8 9 10 11 12 13 14
902
FTUS43 KMPX 252334
TAFRNH
TAF
KRNH 252334Z 2600/2624 30012G18KT P6SM VCSH BKN070
     FM260100 31005KT P6SM SCT070
     FM260400 31004KT P6SM SKC
     FM261600 31008KT P6SM SCT050=

USA.gov is the U.S. government's official web portal to all federal, state and local government web resources and services.